sensor_id;sensor_type;location;lat;lon;timestamp;P1;durP1;ratioP1;P2;durP2;ratioP2
17949;SDS011;9100;48.700;9.316;2022-08-03T00:00:43;4.4;;;4.1;;
17949;SDS011;9100;48.700;9.316;2022-08-03T00:01:43;4.4;;;4.1;;
17949;SDS011;9100;48.700;9.316;2022-08-03T00:02:43;4.4;;;4.1;;
17949;SDS011;9100;48.700;9.316;2022-08-03T00:03:43;4.4;;;4.1;;
17949;SDS011;9100;48.700;9.316;2022-08-03T00:04:17;5.6;;;4.6;;
17949;SDS011;9100;48.700;9.316;2022-08-03T00:04:43;5.6;;;4.6;;
17949;SDS011;9100;48.700;9.316;2022-08-03T00:05:43;5.6;;;4.6;;
17949;SDS011;9100;48.700;9.316;2022-08-03T00:06:43;5.6;;;4.6;;
17949;SDS011;9100;48.700;9.316;2022-08-03T00:07:43;5.6;;;4.6;;
17949;SDS011;9100;48.700;9.316;2022-08-03T00:08:43;5.6;;;4.6;;
17949;SDS011;9100;48.700;9.316;2022-08-03T00:09:17;4.5;;;4.2;;
17949;SDS011;9100;48.700;9.316;2022-08-03T00:09:43;4.5;;;4.2;;
17949;SDS011;9100;48.700;9.316;2022-08-03T00:10:43;4.5;;;4.2;;
17949;SDS011;9100;48.700;9.316;2022-08-03T00:11:43;4.5;;;4.2;;
17949;SDS011;9100;48.700;9.316;2022-08-03T00:12:43;4.5;;;4.2;;
17949;SDS011;9100;48.700;9.316;2022-08-03T00:13:43;4.5;;;4.2;;
17949;SDS011;9100;48.700;9.316;2022-08-03T00:14:17;4.9;;;4.4;;
17949;SDS011;9100;48.700;9.316;2022-08-03T00:14:43;4.9;;;4.4;;
17949;SDS011;9100;48.700;9.316;2022-08-03T00:15:43;4.9;;;4.4;;
17949;SDS011;9100;48.700;9.316;2022-08-03T00:16:43;4.9;;;4.4;;
17949;SDS011;9100;48.700;9.316;2022-08-03T00:17:43;4.9;;;4.4;;
17949;SDS011;9100;48.700;9.316;2022-08-03T00:18:43;4.9;;;4.4;;
17949;SDS011;9100;48.700;9.316;2022-08-03T00:19:17;5.3;;;3.8;;
17949;SDS011;9100;48.700;9.316;2022-08-03T00:19:43;5.3;;;3.8;;
17949;SDS011;9100;48.700;9.316;2022-08-03T00:20:43;5.3;;;3.8;;
17949;SDS011;9100;48.700;9.316;2022-08-03T00:21:43;5.3;;;3.8;;
17949;SDS011;9100;48.700;9.316;2022-08-03T00:22:43;5.3;;;3.8;;
17949;SDS011;9100;48.700;9.316;2022-08-03T00:23:43;5.3;;;3.8;;
17949;SDS011;9100;48.700;9.316;2022-08-03T00:24:17;4.6;;;4.1;;
17949;SDS011;9100;48.700;9.316;2022-08-03T00:24:43;4.6;;;4.1;;
17949;SDS011;9100;48.700;9.316;2022-08-03T00:25:43;4.6;;;4.1;;
17949;SDS011;9100;48.700;9.316;2022-08-03T00:26:43;4.6;;;4.1;;
17949;SDS011;9100;48.700;9.316;2022-08-03T00:27:43;4.6;;;4.1;;
17949;SDS011;9100;48.700;9.316;2022-08-03T00:28:43;4.6;;;4.1;;
17949;SDS011;9100;48.700;9.316;2022-08-03T00:29:17;5.1;;;4.6;;
17949;SDS011;9100;48.700;9.316;2022-08-03T00:29:43;5.1;;;4.6;;
17949;SDS011;9100;48.700;9.316;2022-08-03T00:30:43;5.1;;;4.6;;
17949;SDS011;9100;48.700;9.316;2022-08-03T00:31:43;5.1;;;4.6;;
17949;SDS011;9100;48.700;9.316;2022-08-03T00:32:43;5.1;;;4.6;;
17949;SDS011;9100;48.700;9.316;2022-08-03T00:33:43;5.1;;;4.6;;
17949;SDS011;9100;48.700;9.316;2022-08-03T00:34:17;8.2;;;4.7;;
17949;SDS011;9100;48.700;9.316;2022-08-03T00:34:43;8.2;;;4.7;;
17949;SDS011;9100;48.700;9.316;2022-08-03T00:35:43;8.2;;;4.7;;
17949;SDS011;9100;48.700;9.316;2022-08-03T00:36:43;8.2;;;4.7;;
17949;SDS011;9100;48.700;9.316;2022-08-03T00:37:43;8.2;;;4.7;;
17949;SDS011;9100;48.700;9.316;2022-08-03T00:38:43;8.2;;;4.7;;
17949;SDS011;9100;48.700;9.316;2022-08-03T00:39:17;5.1;;;4.6;;
17949;SDS011;9100;48.700;9.316;2022-08-03T00:39:43;5.1;;;4.6;;
17949;SDS011;9100;48.700;9.316;2022-08-03T00:40:43;5.1;;;4.6;;
17949;SDS011;9100;48.700;9.316;2022-08-03T00:41:43;5.1;;;4.6;;
17949;SDS011;9100;48.700;9.316;2022-08-03T00:42:46;5.1;;;4.6;;
17949;SDS011;9100;48.700;9.316;2022-08-03T00:43:43;5.1;;;4.6;;
17949;SDS011;9100;48.700;9.316;2022-08-03T00:44:17;5.3;;;4.4;;
17949;SDS011;9100;48.700;9.316;2022-08-03T00:44:43;5.3;;;4.4;;
17949;SDS011;9100;48.700;9.316;2022-08-03T00:45:43;5.3;;;4.4;;
17949;SDS011;9100;48.700;9.316;2022-08-03T00:46:43;5.3;;;4.4;;
17949;SDS011;9100;48.700;9.316;2022-08-03T00:47:43;5.3;;;4.4;;
17949;SDS011;9100;48.700;9.316;2022-08-03T00:48:43;5.3;;;4.4;;
17949;SDS011;9100;48.700;9.316;2022-08-03T00:49:17;5.5;;;4.8;;
17949;SDS011;9100;48.700;9.316;2022-08-03T00:49:43;5.5;;;4.8;;
17949;SDS011;9100;48.700;9.316;2022-08-03T00:50:43;5.5;;;4.8;;
17949;SDS011;9100;48.700;9.316;2022-08-03T00:51:43;5.5;;;4.8;;
17949;SDS011;9100;48.700;9.316;2022-08-03T00:52:43;5.5;;;4.8;;
17949;SDS011;9100;48.700;9.316;2022-08-03T00:53:43;5.5;;;4.8;;
17949;SDS011;9100;48.700;9.316;2022-08-03T00:54:17;5.1;;;4.7;;
17949;SDS011;9100;48.700;9.316;2022-08-03T00:54:43;5.1;;;4.7;;
17949;SDS011;9100;48.700;9.316;2022-08-03T00:55:43;5.1;;;4.7;;
17949;SDS011;9100;48.700;9.316;2022-08-03T00:56:43;5.1;;;4.7;;
17949;SDS011;9100;48.700;9.316;2022-08-03T00:57:43;5.1;;;4.7;;
17949;SDS011;9100;48.700;9.316;2022-08-03T00:58:43;5.1;;;4.7;;
17949;SDS011;9100;48.700;9.316;2022-08-03T00:59:17;5.3;;;4.8;;
17949;SDS011;9100;48.700;9.316;2022-08-03T00:59:43;5.3;;;4.8;;
17949;SDS011;9100;48.700;9.316;2022-08-03T01:00:43;5.3;;;4.8;;
17949;SDS011;9100;48.700;9.316;2022-08-03T01:01:43;5.3;;;4.8;;
17949;SDS011;9100;48.700;9.316;2022-08-03T01:02:43;5.3;;;4.8;;
17949;SDS011;9100;48.700;9.316;2022-08-03T01:03:43;5.3;;;4.8;;
17949;SDS011;9100;48.700;9.316;2022-08-03T01:04:17;7.4;;;4.4;;
17949;SDS011;9100;48.700;9.316;2022-08-03T01:04:43;7.4;;;4.4;;
17949;SDS011;9100;48.700;9.316;2022-08-03T01:05:45;7.4;;;4.4;;
17949;SDS011;9100;48.700;9.316;2022-08-03T01:06:44;7.4;;;4.4;;
17949;SDS011;9100;48.700;9.316;2022-08-03T01:07:45;7.4;;;4.4;;
17949;SDS011;9100;48.700;9.316;2022-08-03T01:08:45;7.4;;;4.4;;
17949;SDS011;9100;48.700;9.316;2022-08-03T01:09:18;9;;;4.4;;
17949;SDS011;9100;48.700;9.316;2022-08-03T01:09:45;9;;;4.4;;
17949;SDS011;9100;48.700;9.316;2022-08-03T01:10:44;9;;;4.4;;
17949;SDS011;9100;48.700;9.316;2022-08-03T01:11:43;9;;;4.4;;
17949;SDS011;9100;48.700;9.316;2022-08-03T01:12:45;9;;;4.4;;
17949;SDS011;9100;48.700;9.316;2022-08-03T01:13:44;9;;;4.4;;
17949;SDS011;9100;48.700;9.316;2022-08-03T01:14:20;4.6;;;4.3;;
17949;SDS011;9100;48.700;9.316;2022-08-03T01:14:44;4.6;;;4.3;;
17949;SDS011;9100;48.700;9.316;2022-08-03T01:15:44;4.6;;;4.3;;
17949;SDS011;9100;48.700;9.316;2022-08-03T01:16:43;4.6;;;4.3;;
17949;SDS011;9100;48.700;9.316;2022-08-03T01:17:45;4.6;;;4.3;;
17949;SDS011;9100;48.700;9.316;2022-08-03T01:18:43;4.6;;;4.3;;
17949;SDS011;9100;48.700;9.316;2022-08-03T01:19:23;4.9;;;4.5;;
17949;SDS011;9100;48.700;9.316;2022-08-03T01:19:44;4.9;;;4.5;;
17949;SDS011;9100;48.700;9.316;2022-08-03T01:20:44;4.9;;;4.5;;
17949;SDS011;9100;48.700;9.316;2022-08-03T01:21:46;4.9;;;4.5;;
17949;SDS011;9100;48.700;9.316;2022-08-03T01:22:50;4.9;;;4.5;;
17949;SDS011;9100;48.700;9.316;2022-08-03T01:23:47;4.9;;;4.5;;
17949;SDS011;9100;48.700;9.316;2022-08-03T01:24:21;8.6;;;4.4;;
17949;SDS011;9100;48.700;9.316;2022-08-03T01:24:44;8.6;;;4.4;;
17949;SDS011;9100;48.700;9.316;2022-08-03T01:25:52;8.6;;;4.4;;
17949;SDS011;9100;48.700;9.316;2022-08-03T01:27:01;8.6;;;4.4;;
17949;SDS011;9100;48.700;9.316;2022-08-03T01:27:50;8.6;;;4.4;;
17949;SDS011;9100;48.700;9.316;2022-08-03T01:28:47;8.6;;;4.4;;
17949;SDS011;9100;48.700;9.316;2022-08-03T01:29:37;5.3;;;4.6;;
17949;SDS011;9100;48.700;9.316;2022-08-03T01:29:59;5.3;;;4.6;;
17949;SDS011;9100;48.700;9.316;2022-08-03T01:30:43;5.3;;;4.6;;
17949;SDS011;9100;48.700;9.316;2022-08-03T01:31:43;5.3;;;4.6;;
17949;SDS011;9100;48.700;9.316;2022-08-03T01:32:45;5.3;;;4.6;;
17949;SDS011;9100;48.700;9.316;2022-08-03T01:33:45;5.3;;;4.6;;
17949;SDS011;9100;48.700;9.316;2022-08-03T01:34:17;4.9;;;4.5;;
17949;SDS011;9100;48.700;9.316;2022-08-03T01:34:44;4.9;;;4.5;;
17949;SDS011;9100;48.700;9.316;2022-08-03T01:35:44;4.9;;;4.5;;
17949;SDS011;9100;48.700;9.316;2022-08-03T01:36:43;4.9;;;4.5;;
17949;SDS011;9100;48.700;9.316;2022-08-03T01:37:44;4.9;;;4.5;;
17949;SDS011;9100;48.700;9.316;2022-08-03T01:38:44;4.9;;;4.5;;
17949;SDS011;9100;48.700;9.316;2022-08-03T01:39:17;5.3;;;4.4;;
17949;SDS011;9100;48.700;9.316;2022-08-03T01:39:43;5.3;;;4.4;;
17949;SDS011;9100;48.700;9.316;2022-08-03T01:40:43;5.3;;;4.4;;
17949;SDS011;9100;48.700;9.316;2022-08-03T01:41:43;5.3;;;4.4;;
17949;SDS011;9100;48.700;9.316;2022-08-03T01:42:43;5.3;;;4.4;;
17949;SDS011;9100;48.700;9.316;2022-08-03T01:43:43;5.3;;;4.4;;
17949;SDS011;9100;48.700;9.316;2022-08-03T01:44:17;4.6;;;4.3;;
17949;SDS011;9100;48.700;9.316;2022-08-03T01:44:43;4.6;;;4.3;;
17949;SDS011;9100;48.700;9.316;2022-08-03T01:45:43;4.6;;;4.3;;
17949;SDS011;9100;48.700;9.316;2022-08-03T01:46:43;4.6;;;4.3;;
17949;SDS011;9100;48.700;9.316;2022-08-03T01:47:43;4.6;;;4.3;;
17949;SDS011;9100;48.700;9.316;2022-08-03T01:48:43;4.6;;;4.3;;
17949;SDS011;9100;48.700;9.316;2022-08-03T01:49:17;5;;;4.6;;
17949;SDS011;9100;48.700;9.316;2022-08-03T01:49:43;5;;;4.6;;
17949;SDS011;9100;48.700;9.316;2022-08-03T01:50:43;5;;;4.6;;
17949;SDS011;9100;48.700;9.316;2022-08-03T01:51:43;5;;;4.6;;
17949;SDS011;9100;48.700;9.316;2022-08-03T01:52:43;5;;;4.6;;
17949;SDS011;9100;48.700;9.316;2022-08-03T01:53:43;5;;;4.6;;
17949;SDS011;9100;48.700;9.316;2022-08-03T01:54:17;4.8;;;4.4;;
17949;SDS011;9100;48.700;9.316;2022-08-03T01:54:44;4.8;;;4.4;;
17949;SDS011;9100;48.700;9.316;2022-08-03T01:55:44;4.8;;;4.4;;
17949;SDS011;9100;48.700;9.316;2022-08-03T01:56:43;4.8;;;4.4;;
17949;SDS011;9100;48.700;9.316;2022-08-03T01:57:43;4.8;;;4.4;;
17949;SDS011;9100;48.700;9.316;2022-08-03T01:58:43;4.8;;;4.4;;
17949;SDS011;9100;48.700;9.316;2022-08-03T01:59:17;4.9;;;4.4;;
17949;SDS011;9100;48.700;9.316;2022-08-03T01:59:43;4.9;;;4.4;;
17949;SDS011;9100;48.700;9.316;2022-08-03T02:00:43;4.9;;;4.4;;
17949;SDS011;9100;48.700;9.316;2022-08-03T02:01:43;4.9;;;4.4;;
17949;SDS011;9100;48.700;9.316;2022-08-03T02:02:43;4.9;;;4.4;;
17949;SDS011;9100;48.700;9.316;2022-08-03T02:03:43;4.9;;;4.4;;
17949;SDS011;9100;48.700;9.316;2022-08-03T02:04:17;8.3;;;4.6;;
17949;SDS011;9100;48.700;9.316;2022-08-03T02:04:43;8.3;;;4.6;;
17949;SDS011;9100;48.700;9.316;2022-08-03T02:05:43;8.3;;;4.6;;
17949;SDS011;9100;48.700;9.316;2022-08-03T02:06:44;8.3;;;4.6;;
17949;SDS011;9100;48.700;9.316;2022-08-03T02:07:43;8.3;;;4.6;;
17949;SDS011;9100;48.700;9.316;2022-08-03T02:08:43;8.3;;;4.6;;
17949;SDS011;9100;48.700;9.316;2022-08-03T02:09:19;4.8;;;4.4;;
17949;SDS011;9100;48.700;9.316;2022-08-03T02:09:43;4.8;;;4.4;;
17949;SDS011;9100;48.700;9.316;2022-08-03T02:10:43;4.8;;;4.4;;
17949;SDS011;9100;48.700;9.316;2022-08-03T02:11:43;4.8;;;4.4;;
17949;SDS011;9100;48.700;9.316;2022-08-03T02:12:43;4.8;;;4.4;;
17949;SDS011;9100;48.700;9.316;2022-08-03T02:13:43;4.8;;;4.4;;
17949;SDS011;9100;48.700;9.316;2022-08-03T02:14:17;5.5;;;5;;
17949;SDS011;9100;48.700;9.316;2022-08-03T02:14:43;5.5;;;5;;
17949;SDS011;9100;48.700;9.316;2022-08-03T02:15:43;5.5;;;5;;
17949;SDS011;9100;48.700;9.316;2022-08-03T02:16:43;5.5;;;5;;
17949;SDS011;9100;48.700;9.316;2022-08-03T02:17:43;5.5;;;5;;
17949;SDS011;9100;48.700;9.316;2022-08-03T02:18:43;5.5;;;5;;
17949;SDS011;9100;48.700;9.316;2022-08-03T02:19:17;4.9;;;4.5;;
17949;SDS011;9100;48.700;9.316;2022-08-03T02:19:43;4.9;;;4.5;;
17949;SDS011;9100;48.700;9.316;2022-08-03T02:20:43;4.9;;;4.5;;
17949;SDS011;9100;48.700;9.316;2022-08-03T02:21:43;4.9;;;4.5;;
17949;SDS011;9100;48.700;9.316;2022-08-03T02:22:43;4.9;;;4.5;;
17949;SDS011;9100;48.700;9.316;2022-08-03T02:23:43;4.9;;;4.5;;
17949;SDS011;9100;48.700;9.316;2022-08-03T02:24:17;6.2;;;4.8;;
17949;SDS011;9100;48.700;9.316;2022-08-03T02:24:43;6.2;;;4.8;;
17949;SDS011;9100;48.700;9.316;2022-08-03T02:25:43;6.2;;;4.8;;
17949;SDS011;9100;48.700;9.316;2022-08-03T02:26:43;6.2;;;4.8;;
17949;SDS011;9100;48.700;9.316;2022-08-03T02:27:45;6.2;;;4.8;;
17949;SDS011;9100;48.700;9.316;2022-08-03T02:28:44;6.2;;;4.8;;
17949;SDS011;9100;48.700;9.316;2022-08-03T02:29:19;5.6;;;5.1;;
17949;SDS011;9100;48.700;9.316;2022-08-03T02:29:43;5.6;;;5.1;;
17949;SDS011;9100;48.700;9.316;2022-08-03T02:30:44;5.6;;;5.1;;
17949;SDS011;9100;48.700;9.316;2022-08-03T02:31:43;5.6;;;5.1;;
17949;SDS011;9100;48.700;9.316;2022-08-03T02:32:44;5.6;;;5.1;;
17949;SDS011;9100;48.700;9.316;2022-08-03T02:33:49;5.6;;;5.1;;
17949;SDS011;9100;48.700;9.316;2022-08-03T02:34:17;5;;;4.6;;
17949;SDS011;9100;48.700;9.316;2022-08-03T02:34:45;5;;;4.6;;
17949;SDS011;9100;48.700;9.316;2022-08-03T02:35:43;5;;;4.6;;
17949;SDS011;9100;48.700;9.316;2022-08-03T02:36:45;5;;;4.6;;
17949;SDS011;9100;48.700;9.316;2022-08-03T02:37:43;5;;;4.6;;
17949;SDS011;9100;48.700;9.316;2022-08-03T02:38:43;5;;;4.6;;
17949;SDS011;9100;48.700;9.316;2022-08-03T02:39:18;5.1;;;4.7;;
17949;SDS011;9100;48.700;9.316;2022-08-03T02:39:43;5.1;;;4.7;;
17949;SDS011;9100;48.700;9.316;2022-08-03T02:40:43;5.1;;;4.7;;
17949;SDS011;9100;48.700;9.316;2022-08-03T02:41:44;5.1;;;4.7;;
17949;SDS011;9100;48.700;9.316;2022-08-03T02:42:43;5.1;;;4.7;;
17949;SDS011;9100;48.700;9.316;2022-08-03T02:43:44;5.1;;;4.7;;
17949;SDS011;9100;48.700;9.316;2022-08-03T02:44:19;4.9;;;4.5;;
17949;SDS011;9100;48.700;9.316;2022-08-03T02:44:43;4.9;;;4.5;;
17949;SDS011;9100;48.700;9.316;2022-08-03T02:45:44;4.9;;;4.5;;
17949;SDS011;9100;48.700;9.316;2022-08-03T02:46:44;4.9;;;4.5;;
17949;SDS011;9100;48.700;9.316;2022-08-03T02:47:43;4.9;;;4.5;;
17949;SDS011;9100;48.700;9.316;2022-08-03T02:48:43;4.9;;;4.5;;
17949;SDS011;9100;48.700;9.316;2022-08-03T02:49:17;4.7;;;4.4;;
17949;SDS011;9100;48.700;9.316;2022-08-03T02:49:43;4.7;;;4.4;;
17949;SDS011;9100;48.700;9.316;2022-08-03T02:50:43;4.7;;;4.4;;
17949;SDS011;9100;48.700;9.316;2022-08-03T02:51:43;4.7;;;4.4;;
17949;SDS011;9100;48.700;9.316;2022-08-03T02:52:43;4.7;;;4.4;;
17949;SDS011;9100;48.700;9.316;2022-08-03T02:53:43;4.7;;;4.4;;
17949;SDS011;9100;48.700;9.316;2022-08-03T02:54:17;4.6;;;4.3;;
17949;SDS011;9100;48.700;9.316;2022-08-03T02:54:43;4.6;;;4.3;;
17949;SDS011;9100;48.700;9.316;2022-08-03T02:55:43;4.6;;;4.3;;
17949;SDS011;9100;48.700;9.316;2022-08-03T02:56:43;4.6;;;4.3;;
17949;SDS011;9100;48.700;9.316;2022-08-03T02:57:43;4.6;;;4.3;;
17949;SDS011;9100;48.700;9.316;2022-08-03T02:58:43;4.6;;;4.3;;
17949;SDS011;9100;48.700;9.316;2022-08-03T02:59:17;5.1;;;4.7;;
17949;SDS011;9100;48.700;9.316;2022-08-03T02:59:43;5.1;;;4.7;;
17949;SDS011;9100;48.700;9.316;2022-08-03T03:00:43;5.1;;;4.7;;
17949;SDS011;9100;48.700;9.316;2022-08-03T03:01:43;5.1;;;4.7;;
17949;SDS011;9100;48.700;9.316;2022-08-03T03:02:43;5.1;;;4.7;;
17949;SDS011;9100;48.700;9.316;2022-08-03T03:03:43;5.1;;;4.7;;
17949;SDS011;9100;48.700;9.316;2022-08-03T03:04:17;5.1;;;4.7;;
17949;SDS011;9100;48.700;9.316;2022-08-03T03:04:43;5.1;;;4.7;;
17949;SDS011;9100;48.700;9.316;2022-08-03T03:05:43;5.1;;;4.7;;
17949;SDS011;9100;48.700;9.316;2022-08-03T03:06:43;5.1;;;4.7;;
17949;SDS011;9100;48.700;9.316;2022-08-03T03:07:43;5.1;;;4.7;;
17949;SDS011;9100;48.700;9.316;2022-08-03T03:08:43;5.1;;;4.7;;
17949;SDS011;9100;48.700;9.316;2022-08-03T03:09:17;5.3;;;4.6;;
17949;SDS011;9100;48.700;9.316;2022-08-03T03:09:43;5.3;;;4.6;;
17949;SDS011;9100;48.700;9.316;2022-08-03T03:10:43;5.3;;;4.6;;
17949;SDS011;9100;48.700;9.316;2022-08-03T03:11:43;5.3;;;4.6;;
17949;SDS011;9100;48.700;9.316;2022-08-03T03:12:43;5.3;;;4.6;;
17949;SDS011;9100;48.700;9.316;2022-08-03T03:13:43;5.3;;;4.6;;
17949;SDS011;9100;48.700;9.316;2022-08-03T03:14:17;5.4;;;4.9;;
17949;SDS011;9100;48.700;9.316;2022-08-03T03:14:43;5.4;;;4.9;;
17949;SDS011;9100;48.700;9.316;2022-08-03T03:15:43;5.4;;;4.9;;
17949;SDS011;9100;48.700;9.316;2022-08-03T03:16:43;5.4;;;4.9;;
17949;SDS011;9100;48.700;9.316;2022-08-03T03:17:43;5.4;;;4.9;;
17949;SDS011;9100;48.700;9.316;2022-08-03T03:18:43;5.4;;;4.9;;
17949;SDS011;9100;48.700;9.316;2022-08-03T03:19:17;5.2;;;4.7;;
17949;SDS011;9100;48.700;9.316;2022-08-03T03:19:43;5.2;;;4.7;;
17949;SDS011;9100;48.700;9.316;2022-08-03T03:20:43;5.2;;;4.7;;
17949;SDS011;9100;48.700;9.316;2022-08-03T03:21:43;5.2;;;4.7;;
17949;SDS011;9100;48.700;9.316;2022-08-03T03:22:43;5.2;;;4.7;;
17949;SDS011;9100;48.700;9.316;2022-08-03T03:23:43;5.2;;;4.7;;
17949;SDS011;9100;48.700;9.316;2022-08-03T03:24:17;5.3;;;4.9;;
17949;SDS011;9100;48.700;9.316;2022-08-03T03:24:43;5.3;;;4.9;;
17949;SDS011;9100;48.700;9.316;2022-08-03T03:25:43;5.3;;;4.9;;
17949;SDS011;9100;48.700;9.316;2022-08-03T03:26:43;5.3;;;4.9;;
17949;SDS011;9100;48.700;9.316;2022-08-03T03:27:43;5.3;;;4.9;;
17949;SDS011;9100;48.700;9.316;2022-08-03T03:28:43;5.3;;;4.9;;
17949;SDS011;9100;48.700;9.316;2022-08-03T03:29:17;4.8;;;4.4;;
17949;SDS011;9100;48.700;9.316;2022-08-03T03:29:43;4.8;;;4.4;;
17949;SDS011;9100;48.700;9.316;2022-08-03T03:30:43;4.8;;;4.4;;
17949;SDS011;9100;48.700;9.316;2022-08-03T03:31:43;4.8;;;4.4;;
17949;SDS011;9100;48.700;9.316;2022-08-03T03:32:43;4.8;;;4.4;;
17949;SDS011;9100;48.700;9.316;2022-08-03T03:33:43;4.8;;;4.4;;
17949;SDS011;9100;48.700;9.316;2022-08-03T03:34:17;7.1;;;4.4;;
17949;SDS011;9100;48.700;9.316;2022-08-03T03:34:43;7.1;;;4.4;;
17949;SDS011;9100;48.700;9.316;2022-08-03T03:35:43;7.1;;;4.4;;
17949;SDS011;9100;48.700;9.316;2022-08-03T03:36:43;7.1;;;4.4;;
17949;SDS011;9100;48.700;9.316;2022-08-03T03:37:43;7.1;;;4.4;;
17949;SDS011;9100;48.700;9.316;2022-08-03T03:38:43;7.1;;;4.4;;
17949;SDS011;9100;48.700;9.316;2022-08-03T03:39:17;6.3;;;5;;
17949;SDS011;9100;48.700;9.316;2022-08-03T03:39:43;6.3;;;5;;
17949;SDS011;9100;48.700;9.316;2022-08-03T03:40:43;6.3;;;5;;
17949;SDS011;9100;48.700;9.316;2022-08-03T03:41:43;6.3;;;5;;
17949;SDS011;9100;48.700;9.316;2022-08-03T03:42:43;6.3;;;5;;
17949;SDS011;9100;48.700;9.316;2022-08-03T03:43:43;6.3;;;5;;
17949;SDS011;9100;48.700;9.316;2022-08-03T03:44:17;4.7;;;4.3;;
17949;SDS011;9100;48.700;9.316;2022-08-03T03:44:43;4.7;;;4.3;;
17949;SDS011;9100;48.700;9.316;2022-08-03T03:45:43;4.7;;;4.3;;
17949;SDS011;9100;48.700;9.316;2022-08-03T03:46:43;4.7;;;4.3;;
17949;SDS011;9100;48.700;9.316;2022-08-03T03:47:43;4.7;;;4.3;;
17949;SDS011;9100;48.700;9.316;2022-08-03T03:48:43;4.7;;;4.3;;
17949;SDS011;9100;48.700;9.316;2022-08-03T03:49:17;4.6;;;4.1;;
17949;SDS011;9100;48.700;9.316;2022-08-03T03:49:43;4.6;;;4.1;;
17949;SDS011;9100;48.700;9.316;2022-08-03T03:50:43;4.6;;;4.1;;
17949;SDS011;9100;48.700;9.316;2022-08-03T03:51:43;4.6;;;4.1;;
17949;SDS011;9100;48.700;9.316;2022-08-03T03:52:43;4.6;;;4.1;;
17949;SDS011;9100;48.700;9.316;2022-08-03T03:53:59;4.6;;;4.1;;
17949;SDS011;9100;48.700;9.316;2022-08-03T03:54:17;4.4;;;4.1;;
17949;SDS011;9100;48.700;9.316;2022-08-03T03:54:43;4.4;;;4.1;;
17949;SDS011;9100;48.700;9.316;2022-08-03T03:55:43;4.4;;;4.1;;
17949;SDS011;9100;48.700;9.316;2022-08-03T03:56:43;4.4;;;4.1;;
17949;SDS011;9100;48.700;9.316;2022-08-03T03:57:43;4.4;;;4.1;;
17949;SDS011;9100;48.700;9.316;2022-08-03T03:58:43;4.4;;;4.1;;
17949;SDS011;9100;48.700;9.316;2022-08-03T03:59:17;5.2;;;4.8;;
17949;SDS011;9100;48.700;9.316;2022-08-03T03:59:43;5.2;;;4.8;;
17949;SDS011;9100;48.700;9.316;2022-08-03T04:00:43;5.2;;;4.8;;
17949;SDS011;9100;48.700;9.316;2022-08-03T04:01:43;5.2;;;4.8;;
17949;SDS011;9100;48.700;9.316;2022-08-03T04:02:43;5.2;;;4.8;;
17949;SDS011;9100;48.700;9.316;2022-08-03T04:03:43;5.2;;;4.8;;
17949;SDS011;9100;48.700;9.316;2022-08-03T04:04:17;4.8;;;4.5;;
17949;SDS011;9100;48.700;9.316;2022-08-03T04:04:43;4.8;;;4.5;;
17949;SDS011;9100;48.700;9.316;2022-08-03T04:05:43;4.8;;;4.5;;
17949;SDS011;9100;48.700;9.316;2022-08-03T04:06:43;4.8;;;4.5;;
17949;SDS011;9100;48.700;9.316;2022-08-03T04:07:45;4.8;;;4.5;;
17949;SDS011;9100;48.700;9.316;2022-08-03T04:08:43;4.8;;;4.5;;
17949;SDS011;9100;48.700;9.316;2022-08-03T04:09:17;5.6;;;4.9;;
17949;SDS011;9100;48.700;9.316;2022-08-03T04:09:43;5.6;;;4.9;;
17949;SDS011;9100;48.700;9.316;2022-08-03T04:10:45;5.6;;;4.9;;
17949;SDS011;9100;48.700;9.316;2022-08-03T04:11:44;5.6;;;4.9;;
17949;SDS011;9100;48.700;9.316;2022-08-03T04:12:43;5.6;;;4.9;;
17949;SDS011;9100;48.700;9.316;2022-08-03T04:13:45;5.6;;;4.9;;
17949;SDS011;9100;48.700;9.316;2022-08-03T04:14:18;5.2;;;4.7;;
17949;SDS011;9100;48.700;9.316;2022-08-03T04:14:43;5.2;;;4.7;;
17949;SDS011;9100;48.700;9.316;2022-08-03T04:15:43;5.2;;;4.7;;
17949;SDS011;9100;48.700;9.316;2022-08-03T04:16:44;5.2;;;4.7;;
17949;SDS011;9100;48.700;9.316;2022-08-03T04:17:43;5.2;;;4.7;;
17949;SDS011;9100;48.700;9.316;2022-08-03T04:18:43;5.2;;;4.7;;
17949;SDS011;9100;48.700;9.316;2022-08-03T04:19:18;5.8;;;5.3;;
17949;SDS011;9100;48.700;9.316;2022-08-03T04:19:44;5.8;;;5.3;;
17949;SDS011;9100;48.700;9.316;2022-08-03T04:20:43;5.8;;;5.3;;
17949;SDS011;9100;48.700;9.316;2022-08-03T04:21:43;5.8;;;5.3;;
17949;SDS011;9100;48.700;9.316;2022-08-03T04:22:43;5.8;;;5.3;;
17949;SDS011;9100;48.700;9.316;2022-08-03T04:23:43;5.8;;;5.3;;
17949;SDS011;9100;48.700;9.316;2022-08-03T04:24:17;6.1;;;5.5;;
17949;SDS011;9100;48.700;9.316;2022-08-03T04:24:43;6.1;;;5.5;;
17949;SDS011;9100;48.700;9.316;2022-08-03T04:25:43;6.1;;;5.5;;
17949;SDS011;9100;48.700;9.316;2022-08-03T04:26:43;6.1;;;5.5;;
17949;SDS011;9100;48.700;9.316;2022-08-03T04:27:43;6.1;;;5.5;;
17949;SDS011;9100;48.700;9.316;2022-08-03T04:28:43;6.1;;;5.5;;
17949;SDS011;9100;48.700;9.316;2022-08-03T04:29:17;4.7;;;4.4;;
17949;SDS011;9100;48.700;9.316;2022-08-03T04:29:44;4.7;;;4.4;;
17949;SDS011;9100;48.700;9.316;2022-08-03T04:30:44;4.7;;;4.4;;
17949;SDS011;9100;48.700;9.316;2022-08-03T04:31:43;4.7;;;4.4;;
17949;SDS011;9100;48.700;9.316;2022-08-03T04:32:43;4.7;;;4.4;;
17949;SDS011;9100;48.700;9.316;2022-08-03T04:33:43;4.7;;;4.4;;
17949;SDS011;9100;48.700;9.316;2022-08-03T04:34:17;12;;;5;;
17949;SDS011;9100;48.700;9.316;2022-08-03T04:34:43;12;;;5;;
17949;SDS011;9100;48.700;9.316;2022-08-03T04:35:43;12;;;5;;
17949;SDS011;9100;48.700;9.316;2022-08-03T04:36:44;12;;;5;;
17949;SDS011;9100;48.700;9.316;2022-08-03T04:37:44;12;;;5;;
17949;SDS011;9100;48.700;9.316;2022-08-03T04:38:51;12;;;5;;
17949;SDS011;9100;48.700;9.316;2022-08-03T04:39:18;5.5;;;5;;
17949;SDS011;9100;48.700;9.316;2022-08-03T04:39:43;5.5;;;5;;
17949;SDS011;9100;48.700;9.316;2022-08-03T04:40:43;5.5;;;5;;
17949;SDS011;9100;48.700;9.316;2022-08-03T04:41:43;5.5;;;5;;
17949;SDS011;9100;48.700;9.316;2022-08-03T04:42:43;5.5;;;5;;
17949;SDS011;9100;48.700;9.316;2022-08-03T04:43:43;5.5;;;5;;
17949;SDS011;9100;48.700;9.316;2022-08-03T04:44:17;6.6;;;5.9;;
17949;SDS011;9100;48.700;9.316;2022-08-03T04:44:43;6.6;;;5.9;;
17949;SDS011;9100;48.700;9.316;2022-08-03T04:45:43;6.6;;;5.9;;
17949;SDS011;9100;48.700;9.316;2022-08-03T04:46:43;6.6;;;5.9;;
17949;SDS011;9100;48.700;9.316;2022-08-03T04:47:43;6.6;;;5.9;;
17949;SDS011;9100;48.700;9.316;2022-08-03T04:48:43;6.6;;;5.9;;
17949;SDS011;9100;48.700;9.316;2022-08-03T04:49:17;5.5;;;5;;
17949;SDS011;9100;48.700;9.316;2022-08-03T04:49:43;5.5;;;5;;
17949;SDS011;9100;48.700;9.316;2022-08-03T04:50:43;5.5;;;5;;
17949;SDS011;9100;48.700;9.316;2022-08-03T04:51:43;5.5;;;5;;
17949;SDS011;9100;48.700;9.316;2022-08-03T04:52:43;5.5;;;5;;
17949;SDS011;9100;48.700;9.316;2022-08-03T04:53:43;5.5;;;5;;
17949;SDS011;9100;48.700;9.316;2022-08-03T04:54:17;7.8;;;5.2;;
17949;SDS011;9100;48.700;9.316;2022-08-03T04:54:44;7.8;;;5.2;;
17949;SDS011;9100;48.700;9.316;2022-08-03T04:55:43;7.8;;;5.2;;
17949;SDS011;9100;48.700;9.316;2022-08-03T04:56:43;7.8;;;5.2;;
17949;SDS011;9100;48.700;9.316;2022-08-03T04:57:43;7.8;;;5.2;;
17949;SDS011;9100;48.700;9.316;2022-08-03T04:58:43;7.8;;;5.2;;
17949;SDS011;9100;48.700;9.316;2022-08-03T04:59:17;5.2;;;4.8;;
17949;SDS011;9100;48.700;9.316;2022-08-03T04:59:43;5.2;;;4.8;;
17949;SDS011;9100;48.700;9.316;2022-08-03T05:00:43;5.2;;;4.8;;
17949;SDS011;9100;48.700;9.316;2022-08-03T05:01:43;5.2;;;4.8;;
17949;SDS011;9100;48.700;9.316;2022-08-03T05:02:43;5.2;;;4.8;;
17949;SDS011;9100;48.700;9.316;2022-08-03T05:03:43;5.2;;;4.8;;
17949;SDS011;9100;48.700;9.316;2022-08-03T05:04:17;5.2;;;4.7;;
17949;SDS011;9100;48.700;9.316;2022-08-03T05:04:43;5.2;;;4.7;;
17949;SDS011;9100;48.700;9.316;2022-08-03T05:05:43;5.2;;;4.7;;
17949;SDS011;9100;48.700;9.316;2022-08-03T05:06:43;5.2;;;4.7;;
17949;SDS011;9100;48.700;9.316;2022-08-03T05:07:43;5.2;;;4.7;;
17949;SDS011;9100;48.700;9.316;2022-08-03T05:08:43;5.2;;;4.7;;
17949;SDS011;9100;48.700;9.316;2022-08-03T05:09:17;5;;;4.7;;
17949;SDS011;9100;48.700;9.316;2022-08-03T05:09:43;5;;;4.7;;
17949;SDS011;9100;48.700;9.316;2022-08-03T05:10:43;5;;;4.7;;
17949;SDS011;9100;48.700;9.316;2022-08-03T05:11:43;5;;;4.7;;
17949;SDS011;9100;48.700;9.316;2022-08-03T05:12:43;5;;;4.7;;
17949;SDS011;9100;48.700;9.316;2022-08-03T05:13:43;5;;;4.7;;
17949;SDS011;9100;48.700;9.316;2022-08-03T05:14:17;5.2;;;4.9;;
17949;SDS011;9100;48.700;9.316;2022-08-03T05:14:43;5.2;;;4.9;;
17949;SDS011;9100;48.700;9.316;2022-08-03T05:15:43;5.2;;;4.9;;
17949;SDS011;9100;48.700;9.316;2022-08-03T05:16:43;5.2;;;4.9;;
17949;SDS011;9100;48.700;9.316;2022-08-03T05:17:43;5.2;;;4.9;;